createdAt,value
2023-04-24T00:02:28.042Z,100439.47
2023-04-24T00:04:56.947Z,100433.59
2023-04-24T00:07:25.594Z,100438.34
2023-04-24T00:09:55.812Z,100440.56
2023-04-24T00:12:24.118Z,100435.44
2023-04-24T00:14:53.012Z,100438.41
2023-04-24T00:17:22.390Z,100435.47
2023-04-24T00:19:52.595Z,100442.53
2023-04-24T00:22:22.376Z,100436.88
2023-04-24T00:24:50.932Z,100438.66
2023-04-24T00:27:20.656Z,100433.31
2023-04-24T00:29:49.251Z,100435.31
2023-04-24T00:32:19.334Z,100436.34
2023-04-24T00:34:47.871Z,100436.81
2023-04-24T00:37:16.252Z,100441.53
2023-04-24T00:39:45.168Z,100438.06
2023-04-24T00:42:14.467Z,100432.50
2023-04-24T00:44:44.248Z,100428.19
2023-04-24T00:47:14.589Z,100427.44
2023-04-24T00:49:43.354Z,100421.47
2023-04-24T00:52:13.982Z,100420.75
2023-04-24T00:54:43.369Z,100424.53
2023-04-24T00:57:11.951Z,100419.47
2023-04-24T00:59:42.330Z,100422.94
2023-04-24T01:02:16.120Z,100421.28
2023-04-24T01:04:45.566Z,100421.28
2023-04-24T01:07:14.110Z,100424.22
2023-04-24T01:09:43.988Z,100426.22
2023-04-24T01:12:13.862Z,100428.84
2023-04-24T01:14:46.556Z,100426.44
2023-04-24T01:17:16.382Z,100425.50
2023-04-24T01:19:46.265Z,100423.78
2023-04-24T01:22:18.245Z,100425.72
2023-04-24T01:24:48.163Z,100430.13
2023-04-24T01:27:16.981Z,100436.44
2023-04-24T01:29:45.659Z,100435.06
2023-04-24T01:32:15.041Z,100442.75
2023-04-24T01:34:43.677Z,100438.97
2023-04-24T01:37:12.555Z,100449.56
2023-04-24T01:39:43.043Z,100446.75
2023-04-24T01:42:11.950Z,100436.22
2023-04-24T01:44:41.092Z,100436.03
2023-04-24T01:47:10.576Z,100436.75
2023-04-24T01:49:41.624Z,100439.88
2023-04-24T02:02:44.266Z,100452.63
2023-04-24T02:05:14.114Z,100450.94
2023-04-24T02:07:42.803Z,100446.81
2023-04-24T02:10:12.424Z,100452.94
2023-04-24T02:12:41.095Z,100463.25
2023-04-24T02:15:13.309Z,100457.34
2023-04-24T02:17:43.297Z,100457.19
2023-04-24T02:20:12.243Z,100468.94
2023-04-24T02:22:40.716Z,100470.41
2023-04-24T02:25:09.765Z,100472.06
2023-04-24T02:27:38.222Z,100473.22
2023-04-24T02:30:08.910Z,100479.75
2023-04-24T02:32:37.398Z,100488.59
2023-04-24T02:35:09.549Z,100482.81
2023-04-24T02:37:38.094Z,100478.94
2023-04-24T02:40:08.374Z,100489.03
2023-04-24T02:42:37.198Z,100489.03
2023-04-24T02:45:06.506Z,100487.16
2023-04-24T02:47:35.537Z,100485.78
2023-04-24T02:50:07.610Z,100473.34
2023-04-24T02:52:36.026Z,100486.09
2023-04-24T02:55:04.768Z,100490.28
2023-04-24T02:57:33.083Z,100488.09
2023-04-24T03:00:01.629Z,100487.56
2023-04-24T03:02:30.664Z,100485.69
2023-04-24T03:04:59.632Z,100485.56
2023-04-24T03:07:29.829Z,100483.56
2023-04-24T03:09:59.794Z,100487.16
2023-04-24T03:12:28.358Z,100481.56
2023-04-24T03:14:58.643Z,100485.88
2023-04-24T03:17:27.164Z,100483.00
2023-04-24T03:19:56.189Z,100484.47
2023-04-24T03:22:24.593Z,100482.59
2023-04-24T03:24:55.987Z,100484.47
2023-04-24T03:27:24.936Z,100482.91
2023-04-24T03:29:56.429Z,100473.44
2023-04-24T03:32:25.407Z,100483.75
2023-04-24T03:34:54.520Z,100478.72
2023-04-24T03:37:23.144Z,100481.66
2023-04-24T03:39:51.574Z,100482.63
2023-04-24T03:42:21.562Z,100481.44
2023-04-24T03:44:50.597Z,100488.06
2023-04-24T03:47:18.935Z,100488.19
2023-04-24T03:49:48.678Z,100491.53
2023-04-24T03:52:17.050Z,100488.50
2023-04-24T03:54:45.695Z,100493.53
2023-04-24T03:57:14.593Z,100488.28
2023-04-24T03:59:45.225Z,100491.84
2023-04-24T04:02:14.082Z,100491.34
2023-04-24T04:04:43.620Z,100494.81
2023-04-24T04:07:12.661Z,100493.00
2023-04-24T04:09:41.875Z,100492.59
2023-04-24T04:12:10.534Z,100491.84
2023-04-24T04:14:39.555Z,100491.84
2023-04-24T04:17:11.107Z,100494.72
2023-04-24T04:19:39.419Z,100499.03
2023-04-24T04:22:09.229Z,100510.59
2023-04-24T04:24:39.427Z,100508.28
2023-04-24T04:27:09.582Z,100517.31
2023-04-24T04:29:38.488Z,100517.63
2023-04-24T04:32:08.814Z,100518.91
2023-04-24T04:34:38.921Z,100546.34
2023-04-24T04:37:07.665Z,100553.13
2023-04-24T04:39:36.531Z,100570.09
2023-04-24T04:42:05.391Z,100572.53
2023-04-24T04:44:37.257Z,100575.44
2023-04-24T04:47:06.799Z,100573.66
2023-04-24T04:49:38.117Z,100588.00
2023-04-24T04:52:08.051Z,100595.13
2023-04-24T04:54:36.698Z,100598.78
2023-04-24T04:57:05.687Z,100604.56
2023-04-24T04:59:35.336Z,100599.81
2023-04-24T05:02:03.924Z,100602.16
2023-04-24T05:04:33.191Z,100608.44
2023-04-24T05:07:04.710Z,100616.19
2023-04-24T05:09:35.535Z,100624.34
2023-04-24T05:12:05.263Z,100632.78
2023-04-24T05:14:35.598Z,100634.84
2023-04-24T05:17:04.803Z,100643.56
2023-04-24T05:19:37.427Z,100653.44
2023-04-24T05:22:07.994Z,100660.41
2023-04-24T05:24:37.233Z,100658.63
2023-04-24T05:27:06.842Z,100670.91
2023-04-24T05:29:35.822Z,100674.28
2023-04-24T05:32:04.658Z,100675.78
2023-04-24T05:34:34.692Z,100687.09
2023-04-24T05:37:04.909Z,100682.69
2023-04-24T05:39:37.477Z,100697.19
2023-04-24T05:42:06.504Z,100711.59
2023-04-24T05:44:35.828Z,100712.69
2023-04-24T05:47:04.348Z,100714.09
2023-04-24T05:49:35.619Z,100724.97
2023-04-24T05:52:07.728Z,100727.34
2023-04-24T05:54:37.713Z,100735.13
2023-04-24T05:57:08.825Z,100733.72
2023-04-24T05:59:39.305Z,100741.13
2023-04-24T06:02:08.394Z,100737.91
2023-04-24T06:04:38.590Z,100744.84
2023-04-24T06:07:07.967Z,100751.84
2023-04-24T06:09:38.260Z,100758.47
2023-04-24T06:12:08.724Z,100758.53
2023-04-24T06:14:37.285Z,100772.00
2023-04-24T06:17:05.738Z,100769.94
2023-04-24T06:19:34.226Z,100774.50
2023-04-24T06:22:02.813Z,100783.50
2023-04-24T06:24:32.365Z,100786.63
2023-04-24T06:27:02.603Z,100789.97
2023-04-24T06:29:30.969Z,100790.16
2023-04-24T06:31:59.555Z,100795.00
2023-04-24T06:34:28.166Z,100795.97
2023-04-24T06:36:57.618Z,100799.19
2023-04-24T06:39:27.488Z,100799.44
2023-04-24T06:41:56.308Z,100811.84
2023-04-24T06:44:26.583Z,100800.56
2023-04-24T06:46:59.182Z,100805.28
2023-04-24T06:49:28.043Z,100821.25
2023-04-24T06:51:56.698Z,100821.19
2023-04-24T06:54:25.472Z,100820.06
2023-04-24T06:56:55.749Z,100825.13
2023-04-24T06:59:26.116Z,100828.41
2023-04-24T07:01:55.678Z,100831.91
2023-04-24T07:04:26.756Z,100842.22
2023-04-24T07:06:57.147Z,100843.78
2023-04-24T07:09:26.550Z,100841.59
2023-04-24T07:11:58.922Z,100849.47
2023-04-24T07:14:31.727Z,100844.81
2023-04-24T07:17:00.166Z,100855.19
2023-04-24T07:19:29.065Z,100848.28
2023-04-24T07:22:00.425Z,100857.09
2023-04-24T07:24:30.908Z,100860.72
2023-04-24T07:26:59.730Z,100865.88
2023-04-24T07:29:29.889Z,100866.56
2023-04-24T07:32:00.492Z,100868.00
2023-04-24T07:34:29.936Z,100875.53
2023-04-24T07:36:58.729Z,100878.16
2023-04-24T07:39:27.562Z,100886.56
2023-04-24T07:41:55.952Z,100879.44
2023-04-24T07:44:24.561Z,100884.13
2023-04-24T07:46:55.159Z,100892.47
2023-04-24T07:49:25.276Z,100890.16
2023-04-24T07:51:53.524Z,100891.28
2023-04-24T07:54:22.184Z,100891.00
2023-04-24T07:56:52.282Z,100896.25
2023-04-24T07:59:21.152Z,100903.63
2023-04-24T08:01:49.646Z,100901.34
2023-04-24T08:04:21.158Z,100903.13
2023-04-24T08:06:50.694Z,100907.75
2023-04-24T08:09:19.457Z,100910.88
2023-04-24T08:11:47.784Z,100916.81
2023-04-24T08:14:16.371Z,100907.44
2023-04-24T08:16:44.753Z,100912.16
2023-04-24T08:19:13.441Z,100904.81
2023-04-24T08:21:43.588Z,100909.56
2023-04-24T08:24:12.228Z,100910.22
2023-04-24T08:26:41.241Z,100908.66
2023-04-24T08:29:09.654Z,100910.22
2023-04-24T08:31:38.495Z,100913.53
2023-04-24T08:34:07.172Z,100915.03
2023-04-24T08:36:45.952Z,100907.84
2023-04-24T08:39:18.784Z,100907.75
2023-04-24T08:41:48.043Z,100900.22
2023-04-24T08:44:17.750Z,100889.38
2023-04-24T08:46:48.903Z,100893.16
2023-04-24T08:49:19.232Z,100893.41
2023-04-24T08:51:48.982Z,100894.56
2023-04-24T08:54:23.037Z,100905.97
2023-04-24T08:56:54.740Z,100900.66
2023-04-24T08:59:31.741Z,100905.06
2023-04-24T09:02:02.723Z,100893.41
2023-04-24T09:04:44.446Z,100904.72
2023-04-24T09:07:18.623Z,100904.66
2023-04-24T09:09:57.379Z,100909.53
2023-04-24T09:12:53.988Z,100910.69
2023-04-24T09:15:42.503Z,100917.69
2023-04-24T09:18:54.416Z,100914.31
2023-04-24T09:28:37.131Z,100909.06
2023-04-24T09:31:15.305Z,100911.94
2023-04-24T09:37:56.319Z,100931.31
2023-04-24T09:44:53.628Z,100914.25
2023-04-24T09:48:00.841Z,100914.91
2023-04-24T09:58:16.587Z,100918.38
2023-04-24T10:08:31.194Z,100930.00
2023-04-24T10:22:00.139Z,100913.41
2023-04-24T11:13:57.069Z,100926.94
2023-04-24T11:24:56.334Z,100928.44
2023-04-24T11:27:47.331Z,100942.19
2023-04-24T11:30:45.682Z,100937.22
2023-04-24T11:33:22.898Z,100932.75
2023-04-24T11:35:56.974Z,100939.00
2023-04-24T11:38:39.858Z,100937.41
2023-04-24T11:41:09.298Z,100921.19
2023-04-24T11:43:50.229Z,100924.59
2023-04-24T11:46:23.942Z,100927.56
2023-04-24T11:48:59.960Z,100926.78
2023-04-24T11:55:29.665Z,100932.25
2023-04-24T12:44:35.924Z,100983.81
2023-04-24T13:03:57.527Z,100995.50
2023-04-24T13:10:37.108Z,100997.84
2023-04-24T13:52:18.031Z,101024.34
2023-04-24T13:54:52.694Z,101024.09
2023-04-24T13:58:14.383Z,101023.72
2023-04-24T14:01:14.371Z,101022.22
2023-04-24T14:03:52.087Z,101024.88
2023-04-24T14:06:24.865Z,101031.53
2023-04-24T14:25:04.288Z,101023.16
2023-04-24T14:32:05.371Z,101034.13
2023-04-24T14:38:36.524Z,101036.13
2023-04-24T14:41:15.901Z,101031.88
2023-04-24T14:44:01.654Z,101029.06
2023-04-24T14:58:38.397Z,101039.31
2023-04-24T15:06:38.054Z,101041.56
2023-04-24T15:09:54.560Z,101041.69
2023-04-24T15:13:30.573Z,101045.91
2023-04-24T15:24:15.727Z,101045.09
2023-04-24T15:27:33.626Z,101055.47
2023-04-24T15:31:20.265Z,101055.16
2023-04-24T15:35:10.143Z,101054.03
2023-04-24T15:38:33.291Z,101059.13
2023-04-24T15:41:01.900Z,101051.06
2023-04-24T15:43:32.578Z,101060.06
2023-04-24T15:46:01.378Z,101054.75
2023-04-24T15:48:30.379Z,101056.22
2023-04-24T15:51:00.113Z,101060.53
2023-04-24T15:53:30.131Z,101064.66
2023-04-24T15:55:58.617Z,101075.69
2023-04-24T15:58:27.078Z,101067.56
2023-04-24T16:00:55.998Z,101070.06
2023-04-24T16:03:24.622Z,101083.69
2023-04-24T16:05:54.381Z,101080.09
2023-04-24T16:08:23.016Z,101087.16
2023-04-24T16:10:53.770Z,101088.28
2023-04-24T16:13:22.503Z,101089.69
2023-04-24T16:15:52.568Z,101087.38
2023-04-24T16:18:21.223Z,101086.41
2023-04-24T16:20:52.037Z,101091.91
2023-04-24T16:23:20.864Z,101097.78
2023-04-24T16:25:49.459Z,101095.94
2023-04-24T16:28:19.967Z,101102.66
2023-04-24T16:30:48.676Z,101099.97
2023-04-24T16:33:17.829Z,101103.88
2023-04-24T16:35:49.430Z,101112.41
2023-04-24T16:38:18.097Z,101111.53
2023-04-24T16:40:46.930Z,101117.34
2023-04-24T16:43:15.360Z,101122.25
2023-04-24T16:45:46.218Z,101117.66
2023-04-24T16:48:18.185Z,101116.84
2023-04-24T16:50:51.525Z,101113.31
2023-04-24T16:53:20.651Z,101113.31
2023-04-24T16:55:51.087Z,101114.81
2023-04-24T16:58:20.246Z,101121.44
2023-04-24T17:00:50.777Z,101123.44
2023-04-24T17:03:19.536Z,101137.22
2023-04-24T17:05:48.431Z,101132.56
2023-04-24T17:08:16.997Z,101132.97
2023-04-24T17:10:45.404Z,101130.84
2023-04-24T17:13:14.690Z,101129.16
2023-04-24T17:15:43.762Z,101133.91
2023-04-24T17:18:13.823Z,101121.56
2023-04-24T17:20:42.110Z,101119.44
2023-04-24T17:23:12.249Z,101129.53
2023-04-24T17:25:41.176Z,101127.28
2023-04-24T17:28:22.566Z,101119.09
2023-04-24T17:30:51.143Z,101120.41
2023-04-24T17:33:21.358Z,101115.81
2023-04-24T17:35:50.757Z,101115.19
2023-04-24T17:38:19.954Z,101119.25
2023-04-24T17:40:48.500Z,101115.91
2023-04-24T17:43:18.561Z,101106.56
2023-04-24T17:45:47.696Z,101114.63
2023-04-24T17:48:16.522Z,101107.50
2023-04-24T17:50:47.419Z,101108.56
2023-04-24T17:53:16.435Z,101109.47
2023-04-24T17:55:45.001Z,101119.50
2023-04-24T17:58:14.135Z,101116.13
2023-04-24T18:00:43.505Z,101112.31
2023-04-24T18:03:12.137Z,101115.25
2023-04-24T18:05:41.592Z,101113.59
2023-04-24T18:08:11.559Z,101115.28
2023-04-24T18:10:40.069Z,101110.41
2023-04-24T18:13:09.828Z,101122.22
2023-04-24T18:15:42.294Z,101118.16
2023-04-24T18:18:11.285Z,101111.50
2023-04-24T18:20:39.660Z,101125.81
2023-04-24T18:23:08.163Z,101126.34
2023-04-24T18:25:38.179Z,101127.97
2023-04-24T18:28:06.851Z,101128.75
2023-04-24T18:30:35.172Z,101137.09
2023-04-24T18:33:03.875Z,101135.25
2023-04-24T18:35:32.371Z,101141.84
2023-04-24T18:38:02.071Z,101150.38
2023-04-24T18:40:30.991Z,101158.09
2023-04-24T18:43:01.334Z,101165.03
2023-04-24T18:45:30.134Z,101157.28
2023-04-24T18:47:58.640Z,101166.50
2023-04-24T18:50:31.970Z,101165.38
2023-04-24T18:53:00.653Z,101162.50
2023-04-24T18:55:29.324Z,101165.53
2023-04-24T18:57:57.838Z,101170.22
2023-04-24T19:00:28.075Z,101173.03
2023-04-24T19:02:56.668Z,101175.50
2023-04-24T19:05:27.071Z,101178.47
2023-04-24T19:07:55.786Z,101180.72
2023-04-24T19:10:24.345Z,101184.06
2023-04-24T19:12:57.289Z,101187.84
2023-04-24T19:15:25.726Z,101202.44
2023-04-24T19:17:55.967Z,101201.97
2023-04-24T19:20:30.705Z,101207.34
2023-04-24T19:23:00.298Z,101205.69
2023-04-24T19:25:28.925Z,101220.38
2023-04-24T19:27:58.527Z,101211.31
2023-04-24T19:30:27.171Z,101221.22
2023-04-24T19:32:58.726Z,101218.56
2023-04-24T19:35:27.559Z,101222.53
2023-04-24T19:37:57.009Z,101223.25
2023-04-24T19:40:25.812Z,101229.94
2023-04-24T19:42:55.856Z,101226.75
2023-04-24T19:45:24.378Z,101235.75
2023-04-24T19:47:53.454Z,101229.13
2023-04-24T19:50:23.617Z,101241.97
2023-04-24T19:52:52.051Z,101241.56
2023-04-24T19:55:20.482Z,101253.47
2023-04-24T19:57:48.776Z,101258.06
2023-04-24T20:00:17.453Z,101259.59
2023-04-24T20:02:46.349Z,101269.06
2023-04-24T20:05:14.996Z,101269.91
2023-04-24T20:07:46.625Z,101270.78
2023-04-24T20:10:15.610Z,101274.28
2023-04-24T20:12:44.197Z,101275.88
2023-04-24T20:15:13.954Z,101278.66
2023-04-24T20:17:44.554Z,101276.72
2023-04-24T20:20:15.871Z,101282.72
2023-04-24T20:22:51.194Z,101295.19
2023-04-24T20:25:21.030Z,101290.28
2023-04-24T20:27:49.631Z,101293.06
2023-04-24T20:30:18.330Z,101292.56
2023-04-24T20:32:46.927Z,101295.53
2023-04-24T20:35:15.568Z,101293.13
2023-04-24T20:37:48.286Z,101287.09
2023-04-24T20:40:17.498Z,101290.06
2023-04-24T20:42:46.430Z,101295.47
2023-04-24T20:45:14.907Z,101295.00
2023-04-24T20:47:43.579Z,101300.91
2023-04-24T20:50:13.018Z,101302.47
2023-04-24T20:52:41.557Z,101306.69
2023-04-24T20:55:11.922Z,101300.38
2023-04-24T20:57:40.721Z,101308.72
2023-04-24T21:00:11.299Z,101303.06
2023-04-24T21:02:39.777Z,101307.03
2023-04-24T21:05:10.338Z,101310.59
2023-04-24T21:07:39.085Z,101315.75
2023-04-24T21:10:09.803Z,101310.63
2023-04-24T21:12:40.721Z,101321.63
2023-04-24T21:15:09.924Z,101331.94
2023-04-24T21:17:39.725Z,101329.94
2023-04-24T21:20:09.958Z,101337.75
2023-04-24T21:22:44.848Z,101348.16
2023-04-24T21:25:14.529Z,101347.06
2023-04-24T21:27:44.688Z,101338.22
2023-04-24T21:30:22.127Z,101335.69
2023-04-24T21:32:52.679Z,101346.06
2023-04-24T21:35:22.506Z,101346.06
2023-04-24T21:37:55.987Z,101346.72
2023-04-24T21:40:24.452Z,101351.03
2023-04-24T21:42:58.077Z,101345.75
2023-04-24T21:45:27.632Z,101340.31
2023-04-24T21:47:58.658Z,101335.38
2023-04-24T21:50:27.310Z,101343.03
2023-04-24T21:52:55.943Z,101351.88
2023-04-24T21:55:24.392Z,101356.59
2023-04-24T21:57:56.723Z,101349.66
2023-04-24T22:00:27.336Z,101351.56
2023-04-24T22:02:58.181Z,101345.53
2023-04-24T22:05:31.707Z,101344.00
2023-04-24T22:08:00.712Z,101343.19
2023-04-24T22:10:31.327Z,101339.59
2023-04-24T22:13:01.758Z,101342.22
2023-04-24T22:15:36.497Z,101342.03
2023-04-24T22:18:06.825Z,101347.06
2023-04-24T22:20:39.233Z,101341.59
2023-04-24T22:23:07.738Z,101345.88
2023-04-24T22:25:37.299Z,101339.66
2023-04-24T22:28:07.753Z,101349.13
2023-04-24T22:30:36.248Z,101352.22
2023-04-24T22:33:05.390Z,101351.88
2023-04-24T22:35:36.212Z,101354.94
2023-04-24T22:38:05.021Z,101360.19
2023-04-24T22:40:35.815Z,101356.09
2023-04-24T22:43:04.207Z,101357.13
2023-04-24T22:45:36.393Z,101354.06
2023-04-24T22:48:06.073Z,101357.22
2023-04-24T22:50:37.262Z,101363.00
2023-04-24T22:53:05.930Z,101358.13
2023-04-24T22:55:38.603Z,101360.53
2023-04-24T22:58:08.603Z,101362.09
2023-04-24T23:00:39.570Z,101362.16
2023-04-24T23:03:08.303Z,101357.69
2023-04-24T23:05:37.128Z,101365.84
2023-04-24T23:08:06.879Z,101366.94
2023-04-24T23:10:35.276Z,101373.50
2023-04-24T23:13:04.987Z,101368.59
2023-04-24T23:15:35.245Z,101379.22
2023-04-24T23:18:06.333Z,101385.09
2023-04-24T23:20:37.756Z,101380.78
2023-04-24T23:23:06.782Z,101379.84
2023-04-24T23:25:35.334Z,101374.38
2023-04-24T23:28:03.744Z,101375.28
2023-04-24T23:30:33.402Z,101370.66
2023-04-24T23:33:02.510Z,101377.44
2023-04-24T23:35:33.968Z,101380.06
2023-04-24T23:38:11.324Z,101384.59
2023-04-24T23:40:41.874Z,101402.50
2023-04-24T23:43:10.341Z,101400.31
2023-04-24T23:45:46.829Z,101409.53
2023-04-24T23:48:15.785Z,101410.47
2023-04-24T23:50:50.889Z,101419.53
2023-04-24T23:53:21.440Z,101420.47
2023-04-24T23:55:52.120Z,101414.09
2023-04-24T23:58:22.804Z,101418.13
